sensor_id;sensor_type;location;lat;lon;timestamp;pressure;altitude;pressure_sealevel;temperature;humidity
2184;BME280;1098;48.940;8.962;2022-09-09T00:02:15;98187.47;;;14.93;100.00
2184;BME280;1098;48.940;8.962;2022-09-09T00:04:48;98181.97;;;15.40;100.00
2184;BME280;1098;48.940;8.962;2022-09-09T00:07:21;98183.63;;;15.41;100.00
2184;BME280;1098;48.940;8.962;2022-09-09T00:09:53;98180.34;;;15.34;100.00
2184;BME280;1098;48.940;8.962;2022-09-09T00:12:31;98184.69;;;15.30;100.00
2184;BME280;1098;48.940;8.962;2022-09-09T00:15:01;98182.47;;;15.27;100.00
2184;BME280;1098;48.940;8.962;2022-09-09T00:17:32;98177.38;;;15.40;100.00
2184;BME280;1098;48.940;8.962;2022-09-09T00:20:03;98169.50;;;15.49;100.00
2184;BME280;1098;48.940;8.962;2022-09-09T00:22:33;98173.25;;;15.33;100.00
2184;BME280;1098;48.940;8.962;2022-09-09T00:25:02;98167.75;;;15.23;100.00
2184;BME280;1098;48.940;8.962;2022-09-09T00:27:37;98171.09;;;15.35;100.00
2184;BME280;1098;48.940;8.962;2022-09-09T00:30:13;98173.00;;;15.39;100.00
2184;BME280;1098;48.940;8.962;2022-09-09T00:32:42;98168.94;;;15.37;100.00
2184;BME280;1098;48.940;8.962;2022-09-09T00:35:14;98174.16;;;15.01;100.00
2184;BME280;1098;48.940;8.962;2022-09-09T00:37:48;98173.97;;;15.18;100.00
2184;BME280;1098;48.940;8.962;2022-09-09T00:40:22;98168.16;;;15.52;100.00
2184;BME280;1098;48.940;8.962;2022-09-09T00:42:51;98180.81;;;15.16;100.00
2184;BME280;1098;48.940;8.962;2022-09-09T00:45:28;98193.16;;;15.43;100.00
2184;BME280;1098;48.940;8.962;2022-09-09T00:48:04;98199.69;;;15.37;100.00
2184;BME280;1098;48.940;8.962;2022-09-09T00:50:41;98191.69;;;14.73;100.00
2184;BME280;1098;48.940;8.962;2022-09-09T00:53:16;98203.50;;;14.57;100.00
2184;BME280;1098;48.940;8.962;2022-09-09T00:55:48;98206.84;;;14.64;100.00
2184;BME280;1098;48.940;8.962;2022-09-09T00:58:16;98206.09;;;14.74;100.00
2184;BME280;1098;48.940;8.962;2022-09-09T01:00:46;98211.56;;;14.79;100.00
2184;BME280;1098;48.940;8.962;2022-09-09T01:03:20;98202.38;;;14.85;100.00
2184;BME280;1098;48.940;8.962;2022-09-09T01:05:54;98187.47;;;14.98;100.00
2184;BME280;1098;48.940;8.962;2022-09-09T01:08:47;98171.75;;;15.05;100.00
2184;BME280;1098;48.940;8.962;2022-09-09T01:11:21;98176.16;;;15.11;100.00
2184;BME280;1098;48.940;8.962;2022-09-09T01:16:34;98176.50;;;15.97;100.00
2184;BME280;1098;48.940;8.962;2022-09-09T01:19:02;98176.34;;;15.52;100.00
2184;BME280;1098;48.940;8.962;2022-09-09T01:21:34;98176.31;;;15.46;100.00
2184;BME280;1098;48.940;8.962;2022-09-09T01:24:12;98186.13;;;15.47;100.00
2184;BME280;1098;48.940;8.962;2022-09-09T01:26:57;98181.75;;;15.46;100.00
2184;BME280;1098;48.940;8.962;2022-09-09T01:29:27;98186.75;;;15.12;100.00
2184;BME280;1098;48.940;8.962;2022-09-09T01:31:55;98202.78;;;15.09;100.00
2184;BME280;1098;48.940;8.962;2022-09-09T01:34:25;98217.53;;;15.18;100.00
2184;BME280;1098;48.940;8.962;2022-09-09T01:36:57;98213.63;;;15.04;100.00
2184;BME280;1098;48.940;8.962;2022-09-09T01:39:26;98220.88;;;15.30;100.00
2184;BME280;1098;48.940;8.962;2022-09-09T01:42:02;98212.63;;;15.15;100.00
2184;BME280;1098;48.940;8.962;2022-09-09T01:44:32;98217.94;;;14.95;100.00
2184;BME280;1098;48.940;8.962;2022-09-09T01:47:01;98214.16;;;14.96;100.00
2184;BME280;1098;48.940;8.962;2022-09-09T01:49:29;98208.56;;;14.75;100.00
2184;BME280;1098;48.940;8.962;2022-09-09T01:52:04;98216.59;;;14.97;100.00
2184;BME280;1098;48.940;8.962;2022-09-09T01:54:36;98216.41;;;15.09;100.00
2184;BME280;1098;48.940;8.962;2022-09-09T01:57:14;98231.28;;;14.96;100.00
2184;BME280;1098;48.940;8.962;2022-09-09T01:59:48;98242.00;;;15.13;100.00
2184;BME280;1098;48.940;8.962;2022-09-09T02:02:18;98226.00;;;15.22;100.00
2184;BME280;1098;48.940;8.962;2022-09-09T02:05:02;98216.75;;;15.70;100.00
2184;BME280;1098;48.940;8.962;2022-09-09T02:07:38;98182.44;;;15.84;100.00
2184;BME280;1098;48.940;8.962;2022-09-09T02:10:22;98165.34;;;16.04;100.00
2184;BME280;1098;48.940;8.962;2022-09-09T02:13:05;98171.56;;;15.79;100.00
2184;BME280;1098;48.940;8.962;2022-09-09T02:15:39;98188.00;;;15.42;100.00
2184;BME280;1098;48.940;8.962;2022-09-09T02:18:10;98207.53;;;15.29;100.00
2184;BME280;1098;48.940;8.962;2022-09-09T02:20:40;98206.75;;;15.33;100.00
2184;BME280;1098;48.940;8.962;2022-09-09T02:23:09;98213.72;;;15.19;100.00
2184;BME280;1098;48.940;8.962;2022-09-09T02:25:43;98212.53;;;15.47;100.00
2184;BME280;1098;48.940;8.962;2022-09-09T02:28:21;98205.81;;;15.12;100.00
2184;BME280;1098;48.940;8.962;2022-09-09T02:30:54;98198.50;;;15.23;100.00
2184;BME280;1098;48.940;8.962;2022-09-09T02:33:30;98196.69;;;15.39;100.00
2184;BME280;1098;48.940;8.962;2022-09-09T02:36:02;98206.63;;;15.13;100.00
2184;BME280;1098;48.940;8.962;2022-09-09T02:38:35;98195.75;;;15.18;100.00
2184;BME280;1098;48.940;8.962;2022-09-09T02:41:08;98193.25;;;15.06;100.00
2184;BME280;1098;48.940;8.962;2022-09-09T02:43:39;98204.28;;;15.32;100.00
2184;BME280;1098;48.940;8.962;2022-09-09T02:46:15;98202.31;;;15.22;100.00
2184;BME280;1098;48.940;8.962;2022-09-09T02:48:51;98210.44;;;15.12;100.00
2184;BME280;1098;48.940;8.962;2022-09-09T02:51:24;98190.41;;;15.38;100.00
2184;BME280;1098;48.940;8.962;2022-09-09T02:53:59;98179.72;;;15.22;100.00
2184;BME280;1098;48.940;8.962;2022-09-09T02:56:30;98176.50;;;16.02;100.00
2184;BME280;1098;48.940;8.962;2022-09-09T02:59:04;98164.06;;;15.49;100.00
2184;BME280;1098;48.940;8.962;2022-09-09T03:01:34;98183.25;;;15.17;100.00
2184;BME280;1098;48.940;8.962;2022-09-09T03:04:03;98186.34;;;16.08;100.00
2184;BME280;1098;48.940;8.962;2022-09-09T03:06:32;98173.78;;;15.92;100.00
2184;BME280;1098;48.940;8.962;2022-09-09T03:09:10;98170.22;;;15.24;100.00
2184;BME280;1098;48.940;8.962;2022-09-09T03:11:38;98173.50;;;15.26;100.00
2184;BME280;1098;48.940;8.962;2022-09-09T03:14:08;98174.56;;;15.25;100.00
2184;BME280;1098;48.940;8.962;2022-09-09T03:16:38;98174.81;;;15.13;100.00
2184;BME280;1098;48.940;8.962;2022-09-09T03:19:06;98171.97;;;14.93;100.00
2184;BME280;1098;48.940;8.962;2022-09-09T03:21:34;98173.69;;;15.09;100.00
2184;BME280;1098;48.940;8.962;2022-09-09T03:24:02;98170.94;;;15.57;100.00
2184;BME280;1098;48.940;8.962;2022-09-09T03:26:31;98160.94;;;15.15;100.00
2184;BME280;1098;48.940;8.962;2022-09-09T03:29:00;98158.28;;;15.30;100.00
2184;BME280;1098;48.940;8.962;2022-09-09T03:31:31;98159.16;;;15.46;100.00
2184;BME280;1098;48.940;8.962;2022-09-09T03:33:59;98154.44;;;16.04;100.00
2184;BME280;1098;48.940;8.962;2022-09-09T03:36:30;98149.06;;;15.46;100.00
2184;BME280;1098;48.940;8.962;2022-09-09T03:38:58;98152.97;;;15.56;100.00
2184;BME280;1098;48.940;8.962;2022-09-09T03:41:29;98160.19;;;16.12;100.00
2184;BME280;1098;48.940;8.962;2022-09-09T03:43:59;98154.44;;;15.99;100.00
2184;BME280;1098;48.940;8.962;2022-09-09T03:46:32;98156.81;;;15.80;100.00
2184;BME280;1098;48.940;8.962;2022-09-09T03:49:00;98165.28;;;15.16;100.00
2184;BME280;1098;48.940;8.962;2022-09-09T03:51:31;98172.81;;;15.04;100.00
2184;BME280;1098;48.940;8.962;2022-09-09T03:54:04;98174.16;;;15.01;100.00
2184;BME280;1098;48.940;8.962;2022-09-09T03:56:35;98179.41;;;15.13;100.00
2184;BME280;1098;48.940;8.962;2022-09-09T03:59:03;98172.81;;;15.04;100.00
2184;BME280;1098;48.940;8.962;2022-09-09T04:01:33;98165.28;;;15.16;100.00
2184;BME280;1098;48.940;8.962;2022-09-09T04:04:01;98157.56;;;15.55;100.00
2184;BME280;1098;48.940;8.962;2022-09-09T04:06:29;98148.59;;;15.60;100.00
2184;BME280;1098;48.940;8.962;2022-09-09T04:08:57;98155.16;;;15.59;100.00
2184;BME280;1098;48.940;8.962;2022-09-09T04:11:26;98161.94;;;15.61;100.00
2184;BME280;1098;48.940;8.962;2022-09-09T04:13:57;98153.06;;;15.96;100.00
2184;BME280;1098;48.940;8.962;2022-09-09T04:16:25;98149.06;;;15.46;100.00
2184;BME280;1098;48.940;8.962;2022-09-09T04:18:54;98162.66;;;15.41;100.00
2184;BME280;1098;48.940;8.962;2022-09-09T04:21:25;98162.78;;;15.62;100.00
2184;BME280;1098;48.940;8.962;2022-09-09T04:23:53;98170.34;;;15.55;100.00
2184;BME280;1098;48.940;8.962;2022-09-09T04:26:21;98160.75;;;15.42;100.00
2184;BME280;1098;48.940;8.962;2022-09-09T04:28:49;98169.47;;;15.34;100.00
2184;BME280;1098;48.940;8.962;2022-09-09T04:31:19;98179.63;;;15.54;100.00
2184;BME280;1098;48.940;8.962;2022-09-09T04:33:52;98185.53;;;15.35;100.00
2184;BME280;1098;48.940;8.962;2022-09-09T04:36:22;98185.94;;;15.64;100.00
2184;BME280;1098;48.940;8.962;2022-09-09T04:38:54;98169.16;;;16.13;100.00
2184;BME280;1098;48.940;8.962;2022-09-09T04:41:22;98162.84;;;15.77;100.00
2184;BME280;1098;48.940;8.962;2022-09-09T04:43:52;98161.28;;;16.42;100.00
2184;BME280;1098;48.940;8.962;2022-09-09T04:46:21;98164.00;;;16.17;100.00
2184;BME280;1098;48.940;8.962;2022-09-09T04:48:50;98167.16;;;15.68;100.00
2184;BME280;1098;48.940;8.962;2022-09-09T04:51:20;98184.97;;;15.38;100.00
2184;BME280;1098;48.940;8.962;2022-09-09T04:53:50;98166.63;;;15.81;100.00
2184;BME280;1098;48.940;8.962;2022-09-09T04:56:20;98177.78;;;15.69;100.00
2184;BME280;1098;48.940;8.962;2022-09-09T04:58:54;98173.13;;;15.65;100.00
2184;BME280;1098;48.940;8.962;2022-09-09T05:01:31;98169.19;;;16.18;100.00
2184;BME280;1098;48.940;8.962;2022-09-09T05:04:02;98180.75;;;15.63;100.00
2184;BME280;1098;48.940;8.962;2022-09-09T05:06:32;98192.34;;;15.38;100.00
2184;BME280;1098;48.940;8.962;2022-09-09T05:09:04;98189.75;;;15.58;100.00
2184;BME280;1098;48.940;8.962;2022-09-09T05:11:32;98191.78;;;16.08;100.00
2184;BME280;1098;48.940;8.962;2022-09-09T05:14:20;98195.19;;;15.58;100.00
2184;BME280;1098;48.940;8.962;2022-09-09T05:16:50;98196.34;;;15.77;100.00
2184;BME280;1098;48.940;8.962;2022-09-09T05:19:18;98199.81;;;15.58;100.00
2184;BME280;1098;48.940;8.962;2022-09-09T05:21:49;98191.72;;;15.88;100.00
2184;BME280;1098;48.940;8.962;2022-09-09T05:24:24;98190.38;;;15.86;100.00
2184;BME280;1098;48.940;8.962;2022-09-09T05:26:54;98197.09;;;15.58;100.00
2184;BME280;1098;48.940;8.962;2022-09-09T05:29:29;98194.47;;;15.88;100.00
2184;BME280;1098;48.940;8.962;2022-09-09T05:31:59;98206.44;;;15.77;100.00
2184;BME280;1098;48.940;8.962;2022-09-09T05:34:27;98207.84;;;15.95;100.00
2184;BME280;1098;48.940;8.962;2022-09-09T05:36:55;98205.13;;;15.95;100.00
2184;BME280;1098;48.940;8.962;2022-09-09T05:39:26;98195.31;;;16.09;100.00
2184;BME280;1098;48.940;8.962;2022-09-09T05:41:55;98197.78;;;16.10;100.00
2184;BME280;1098;48.940;8.962;2022-09-09T05:44:23;98192.66;;;16.34;100.00
2184;BME280;1098;48.940;8.962;2022-09-09T05:46:54;98207.03;;;16.04;100.00
2184;BME280;1098;48.940;8.962;2022-09-09T05:49:22;98199.19;;;16.18;100.00
2184;BME280;1098;48.940;8.962;2022-09-09T05:51:51;98201.34;;;16.21;100.00
2184;BME280;1098;48.940;8.962;2022-09-09T05:54:22;98204.91;;;16.32;100.00
2184;BME280;1098;48.940;8.962;2022-09-09T05:56:53;98203.78;;;16.23;100.00
2184;BME280;1098;48.940;8.962;2022-09-09T05:59:23;98202.19;;;16.42;100.00
2184;BME280;1098;48.940;8.962;2022-09-09T06:01:54;98201.38;;;16.46;100.00
2184;BME280;1098;48.940;8.962;2022-09-09T06:04:28;98205.44;;;16.44;100.00
2184;BME280;1098;48.940;8.962;2022-09-09T06:07:00;98203.56;;;16.34;100.00
2184;BME280;1098;48.940;8.962;2022-09-09T06:09:29;98196.19;;;16.45;100.00
2184;BME280;1098;48.940;8.962;2022-09-09T06:11:59;98191.84;;;16.64;100.00
2184;BME280;1098;48.940;8.962;2022-09-09T06:14:30;98199.47;;;16.98;100.00
2184;BME280;1098;48.940;8.962;2022-09-09T06:16:59;98195.13;;;16.97;100.00
2184;BME280;1098;48.940;8.962;2022-09-09T06:19:29;98198.13;;;17.00;100.00
2184;BME280;1098;48.940;8.962;2022-09-09T06:21:59;98206.56;;;16.94;100.00
2184;BME280;1098;48.940;8.962;2022-09-09T06:24:30;98196.75;;;16.88;100.00
2184;BME280;1098;48.940;8.962;2022-09-09T06:27:00;98201.94;;;16.94;100.00
2184;BME280;1098;48.940;8.962;2022-09-09T06:29:32;98205.47;;;16.90;100.00
2184;BME280;1098;48.940;8.962;2022-09-09T06:32:01;98209.84;;;16.55;100.00
2184;BME280;1098;48.940;8.962;2022-09-09T06:34:30;98212.31;;;16.62;100.00
2184;BME280;1098;48.940;8.962;2022-09-09T06:37:01;98216.38;;;16.49;100.00
2184;BME280;1098;48.940;8.962;2022-09-09T06:39:36;98218.59;;;16.77;100.00
2184;BME280;1098;48.940;8.962;2022-09-09T06:42:06;98210.94;;;16.90;100.00
2184;BME280;1098;48.940;8.962;2022-09-09T06:44:54;98205.72;;;17.24;100.00
2184;BME280;1098;48.940;8.962;2022-09-09T06:47:35;98219.03;;;17.45;100.00
2184;BME280;1098;48.940;8.962;2022-09-09T06:50:03;98212.97;;;17.59;100.00
2184;BME280;1098;48.940;8.962;2022-09-09T06:52:33;98206.44;;;17.49;100.00
2184;BME280;1098;48.940;8.962;2022-09-09T06:55:03;98201.47;;;17.72;100.00
2184;BME280;1098;48.940;8.962;2022-09-09T06:57:33;98208.47;;;17.93;100.00
2184;BME280;1098;48.940;8.962;2022-09-09T07:00:08;98198.91;;;17.91;100.00
2184;BME280;1098;48.940;8.962;2022-09-09T07:02:36;98215.13;;;17.67;100.00
2184;BME280;1098;48.940;8.962;2022-09-09T07:05:06;98215.16;;;17.57;100.00
2184;BME280;1098;48.940;8.962;2022-09-09T07:07:35;98218.88;;;17.91;100.00
2184;BME280;1098;48.940;8.962;2022-09-09T07:10:05;98224.06;;;17.93;100.00
2184;BME280;1098;48.940;8.962;2022-09-09T07:12:37;98210.94;;;18.39;100.00
2184;BME280;1098;48.940;8.962;2022-09-09T07:15:09;98217.06;;;18.26;100.00
2184;BME280;1098;48.940;8.962;2022-09-09T07:17:40;98212.03;;;18.77;100.00
2184;BME280;1098;48.940;8.962;2022-09-09T07:20:09;98213.88;;;18.86;100.00
2184;BME280;1098;48.940;8.962;2022-09-09T07:22:37;98209.50;;;19.14;100.00
2184;BME280;1098;48.940;8.962;2022-09-09T07:25:05;98216.53;;;18.58;100.00
2184;BME280;1098;48.940;8.962;2022-09-09T07:27:36;98214.38;;;18.60;100.00
2184;BME280;1098;48.940;8.962;2022-09-09T07:30:05;98194.25;;;18.74;100.00
2184;BME280;1098;48.940;8.962;2022-09-09T07:32:36;98188.50;;;19.05;100.00
2184;BME280;1098;48.940;8.962;2022-09-09T07:35:05;98192.66;;;19.02;100.00
2184;BME280;1098;48.940;8.962;2022-09-09T07:37:35;98195.88;;;19.33;100.00
2184;BME280;1098;48.940;8.962;2022-09-09T07:40:04;98196.44;;;19.06;100.00
2184;BME280;1098;48.940;8.962;2022-09-09T07:42:32;98208.44;;;18.81;100.00
2184;BME280;1098;48.940;8.962;2022-09-09T07:45:02;98214.59;;;18.68;100.00
2184;BME280;1098;48.940;8.962;2022-09-09T07:47:30;98215.56;;;18.82;100.00
2184;BME280;1098;48.940;8.962;2022-09-09T07:49:58;98209.78;;;18.84;100.00
2184;BME280;1098;48.940;8.962;2022-09-09T07:52:30;98206.63;;;19.01;100.00
2184;BME280;1098;48.940;8.962;2022-09-09T07:55:02;98204.34;;;18.79;100.00
2184;BME280;1098;48.940;8.962;2022-09-09T07:57:32;98217.78;;;18.75;100.00
2184;BME280;1098;48.940;8.962;2022-09-09T08:00:05;98210.78;;;19.22;100.00
2184;BME280;1098;48.940;8.962;2022-09-09T08:02:41;98219.59;;;19.19;100.00
2184;BME280;1098;48.940;8.962;2022-09-09T08:05:10;98209.94;;;18.98;100.00
2184;BME280;1098;48.940;8.962;2022-09-09T08:07:40;98201.00;;;19.40;100.00
2184;BME280;1098;48.940;8.962;2022-09-09T08:10:08;98192.22;;;19.43;100.00
2184;BME280;1098;48.940;8.962;2022-09-09T08:12:40;98191.34;;;19.47;100.00
2184;BME280;1098;48.940;8.962;2022-09-09T08:15:32;98204.00;;;19.43;100.00
2184;BME280;1098;48.940;8.962;2022-09-09T08:18:01;98202.03;;;19.73;100.00
2184;BME280;1098;48.940;8.962;2022-09-09T08:20:29;98204.41;;;19.55;100.00
2184;BME280;1098;48.940;8.962;2022-09-09T08:22:57;98212.34;;;19.81;100.00
2184;BME280;1098;48.940;8.962;2022-09-09T08:25:25;98216.75;;;19.29;100.00
2184;BME280;1098;48.940;8.962;2022-09-09T08:27:53;98207.38;;;19.83;100.00
2184;BME280;1098;48.940;8.962;2022-09-09T08:30:22;98212.59;;;20.03;100.00
2184;BME280;1098;48.940;8.962;2022-09-09T08:32:52;98207.84;;;19.90;100.00
2184;BME280;1098;48.940;8.962;2022-09-09T08:35:21;98202.59;;;20.12;100.00
2184;BME280;1098;48.940;8.962;2022-09-09T08:37:53;98196.09;;;19.66;100.00
2184;BME280;1098;48.940;8.962;2022-09-09T08:40:22;98198.13;;;19.55;100.00
2184;BME280;1098;48.940;8.962;2022-09-09T08:42:54;98197.16;;;19.88;100.00
2184;BME280;1098;48.940;8.962;2022-09-09T08:45:29;98185.88;;;19.71;100.00
2184;BME280;1098;48.940;8.962;2022-09-09T08:50:49;98192.50;;;20.27;100.00
2184;BME280;1098;48.940;8.962;2022-09-09T08:53:24;98193.03;;;20.29;100.00
2184;BME280;1098;48.940;8.962;2022-09-09T08:55:57;98193.50;;;20.54;100.00
2184;BME280;1098;48.940;8.962;2022-09-09T08:58:40;98191.16;;;20.62;100.00
2184;BME280;1098;48.940;8.962;2022-09-09T09:01:16;98195.94;;;20.56;100.00
2184;BME280;1098;48.940;8.962;2022-09-09T09:03:55;98197.91;;;20.37;100.00
2184;BME280;1098;48.940;8.962;2022-09-09T09:06:33;98195.50;;;20.81;100.00
2184;BME280;1098;48.940;8.962;2022-09-09T09:09:08;98178.59;;;21.07;100.00
2184;BME280;1098;48.940;8.962;2022-09-09T09:11:43;98181.22;;;21.58;100.00
2184;BME280;1098;48.940;8.962;2022-09-09T09:14:15;98187.50;;;21.31;100.00
2184;BME280;1098;48.940;8.962;2022-09-09T09:16:49;98178.47;;;20.98;100.00
2184;BME280;1098;48.940;8.962;2022-09-09T09:19:19;98186.78;;;21.67;100.00
2184;BME280;1098;48.940;8.962;2022-09-09T09:21:53;98173.00;;;21.94;100.00
2184;BME280;1098;48.940;8.962;2022-09-09T09:24:24;98170.56;;;22.06;100.00
2184;BME280;1098;48.940;8.962;2022-09-09T09:26:55;98170.16;;;21.99;100.00
2184;BME280;1098;48.940;8.962;2022-09-09T09:29:24;98183.63;;;21.87;100.00
2184;BME280;1098;48.940;8.962;2022-09-09T09:31:53;98172.75;;;22.32;100.00
2184;BME280;1098;48.940;8.962;2022-09-09T09:34:26;98185.16;;;21.66;100.00
2184;BME280;1098;48.940;8.962;2022-09-09T09:36:58;98172.56;;;21.37;100.00
2184;BME280;1098;48.940;8.962;2022-09-09T09:39:31;98166.91;;;21.15;100.00
2184;BME280;1098;48.940;8.962;2022-09-09T09:42:23;98172.47;;;20.64;100.00
2184;BME280;1098;48.940;8.962;2022-09-09T09:44:54;98178.78;;;20.27;100.00
2184;BME280;1098;48.940;8.962;2022-09-09T09:47:22;98182.13;;;20.05;100.00
2184;BME280;1098;48.940;8.962;2022-09-09T09:50:17;98180.56;;;19.56;100.00
2184;BME280;1098;48.940;8.962;2022-09-09T09:52:54;98191.09;;;19.44;100.00
2184;BME280;1098;48.940;8.962;2022-09-09T09:55:24;98206.00;;;18.80;100.00
2184;BME280;1098;48.940;8.962;2022-09-09T09:57:54;98243.03;;;18.28;100.00
2184;BME280;1098;48.940;8.962;2022-09-09T10:00:28;98250.19;;;17.44;100.00
2184;BME280;1098;48.940;8.962;2022-09-09T10:03:12;98271.00;;;17.00;100.00
2184;BME280;1098;48.940;8.962;2022-09-09T10:05:45;98367.75;;;15.89;100.00
2184;BME280;1098;48.940;8.962;2022-09-09T10:08:15;98329.13;;;16.80;100.00
2184;BME280;1098;48.940;8.962;2022-09-09T10:10:52;98289.81;;;16.91;100.00
2184;BME280;1098;48.940;8.962;2022-09-09T10:13:25;98260.47;;;17.83;100.00
2184;BME280;1098;48.940;8.962;2022-09-09T10:16:06;98220.25;;;18.38;100.00
2184;BME280;1098;48.940;8.962;2022-09-09T10:18:49;98211.28;;;19.00;100.00
2184;BME280;1098;48.940;8.962;2022-09-09T10:21:26;98224.66;;;18.73;100.00
2184;BME280;1098;48.940;8.962;2022-09-09T10:24:07;98236.59;;;18.48;100.00
2184;BME280;1098;48.940;8.962;2022-09-09T10:26:41;98235.44;;;19.22;100.00
2184;BME280;1098;48.940;8.962;2022-09-09T10:29:15;98228.13;;;19.41;100.00
2184;BME280;1098;48.940;8.962;2022-09-09T10:31:49;98210.53;;;19.95;100.00
2184;BME280;1098;48.940;8.962;2022-09-09T10:34:24;98212.63;;;19.79;100.00
2184;BME280;1098;48.940;8.962;2022-09-09T10:36:59;98209.66;;;19.76;100.00
2184;BME280;1098;48.940;8.962;2022-09-09T10:39:33;98193.03;;;19.91;100.00
2184;BME280;1098;48.940;8.962;2022-09-09T10:42:09;98184.53;;;19.69;100.00
2184;BME280;1098;48.940;8.962;2022-09-09T10:44:42;98206.78;;;18.85;100.00
2184;BME280;1098;48.940;8.962;2022-09-09T10:50:02;98194.34;;;19.22;100.00
2184;BME280;1098;48.940;8.962;2022-09-09T10:52:36;98203.31;;;19.04;100.00
2184;BME280;1098;48.940;8.962;2022-09-09T10:55:10;98206.66;;;19.25;100.00
2184;BME280;1098;48.940;8.962;2022-09-09T10:57:40;98219.59;;;18.90;100.00
2184;BME280;1098;48.940;8.962;2022-09-09T11:00:14;98216.47;;;19.02;100.00
2184;BME280;1098;48.940;8.962;2022-09-09T11:02:43;98220.66;;;19.23;100.00
2184;BME280;1098;48.940;8.962;2022-09-09T11:05:14;98211.47;;;18.80;100.00
2184;BME280;1098;48.940;8.962;2022-09-09T11:07:47;98232.78;;;18.83;100.00
2184;BME280;1098;48.940;8.962;2022-09-09T11:10:21;98239.00;;;18.60;100.00
2184;BME280;1098;48.940;8.962;2022-09-09T11:12:53;98250.97;;;18.25;100.00
2184;BME280;1098;48.940;8.962;2022-09-09T11:15:23;98259.41;;;17.59;100.00
2184;BME280;1098;48.940;8.962;2022-09-09T11:17:53;98259.44;;;17.53;100.00
2184;BME280;1098;48.940;8.962;2022-09-09T11:20:24;98265.41;;;17.71;100.00
2184;BME280;1098;48.940;8.962;2022-09-09T11:22:54;98267.66;;;17.38;100.00
2184;BME280;1098;48.940;8.962;2022-09-09T11:25:26;98274.00;;;16.93;100.00
2184;BME280;1098;48.940;8.962;2022-09-09T11:28:00;98286.81;;;17.13;100.00
2184;BME280;1098;48.940;8.962;2022-09-09T11:30:36;98280.53;;;17.07;100.00
2184;BME280;1098;48.940;8.962;2022-09-09T11:33:26;98291.19;;;16.94;100.00
2184;BME280;1098;48.940;8.962;2022-09-09T11:36:06;98293.09;;;16.73;100.00
2184;BME280;1098;48.940;8.962;2022-09-09T11:38:40;98289.00;;;16.80;100.00
2184;BME280;1098;48.940;8.962;2022-09-09T11:41:13;98283.53;;;16.70;100.00
2184;BME280;1098;48.940;8.962;2022-09-09T11:43:48;98272.03;;;16.58;100.00
2184;BME280;1098;48.940;8.962;2022-09-09T11:46:20;98282.19;;;17.18;100.00
2184;BME280;1098;48.940;8.962;2022-09-09T11:48:57;98278.38;;;16.79;100.00
2184;BME280;1098;48.940;8.962;2022-09-09T11:51:27;98269.00;;;17.56;100.00
2184;BME280;1098;48.940;8.962;2022-09-09T11:53:57;98257.56;;;17.39;100.00
2184;BME280;1098;48.940;8.962;2022-09-09T11:56:34;98228.75;;;17.82;100.00
2184;BME280;1098;48.940;8.962;2022-09-09T11:59:19;98227.94;;;18.31;100.00
2184;BME280;1098;48.940;8.962;2022-09-09T12:01:49;98208.59;;;18.95;100.00
2184;BME280;1098;48.940;8.962;2022-09-09T12:04:25;98203.53;;;18.78;100.00
2184;BME280;1098;48.940;8.962;2022-09-09T12:06:56;98189.66;;;18.70;100.00
2184;BME280;1098;48.940;8.962;2022-09-09T12:09:31;98199.63;;;19.13;100.00
2184;BME280;1098;48.940;8.962;2022-09-09T12:12:17;98184.31;;;19.65;100.00
2184;BME280;1098;48.940;8.962;2022-09-09T12:14:58;98175.78;;;19.67;100.00
2184;BME280;1098;48.940;8.962;2022-09-09T12:17:27;98188.19;;;19.83;100.00
2184;BME280;1098;48.940;8.962;2022-09-09T12:20:00;98172.88;;;20.57;100.00
2184;BME280;1098;48.940;8.962;2022-09-09T12:22:33;98173.53;;;20.49;100.00
2184;BME280;1098;48.940;8.962;2022-09-09T12:25:05;98178.50;;;20.47;100.00
2184;BME280;1098;48.940;8.962;2022-09-09T12:27:42;98181.19;;;20.84;100.00
2184;BME280;1098;48.940;8.962;2022-09-09T12:30:14;98174.56;;;20.53;100.00
2184;BME280;1098;48.940;8.962;2022-09-09T12:32:42;98167.34;;;21.22;100.00
2184;BME280;1098;48.940;8.962;2022-09-09T12:35:11;98158.53;;;21.06;100.00
2184;BME280;1098;48.940;8.962;2022-09-09T12:37:41;98163.84;;;21.16;100.00
2184;BME280;1098;48.940;8.962;2022-09-09T12:40:18;98150.16;;;20.84;100.00
2184;BME280;1098;48.940;8.962;2022-09-09T12:42:48;98162.88;;;21.53;100.00
2184;BME280;1098;48.940;8.962;2022-09-09T12:45:17;98150.78;;;20.95;100.00
2184;BME280;1098;48.940;8.962;2022-09-09T12:47:47;98155.06;;;20.36;100.00
2184;BME280;1098;48.940;8.962;2022-09-09T12:50:17;98168.97;;;21.23;100.00
2184;BME280;1098;48.940;8.962;2022-09-09T12:52:47;98150.25;;;21.25;100.00
2184;BME280;1098;48.940;8.962;2022-09-09T12:55:16;98153.78;;;21.67;100.00
2184;BME280;1098;48.940;8.962;2022-09-09T12:57:46;98150.56;;;22.14;100.00
2184;BME280;1098;48.940;8.962;2022-09-09T13:00:19;98154.47;;;22.00;100.00
2184;BME280;1098;48.940;8.962;2022-09-09T13:02:48;98147.31;;;22.12;100.00
2184;BME280;1098;48.940;8.962;2022-09-09T13:05:19;98138.19;;;22.25;100.00
2184;BME280;1098;48.940;8.962;2022-09-09T13:07:47;98133.44;;;22.17;100.00
2184;BME280;1098;48.940;8.962;2022-09-09T13:10:19;98143.19;;;21.74;100.00
2184;BME280;1098;48.940;8.962;2022-09-09T13:13:13;98139.16;;;22.07;100.00
2184;BME280;1098;48.940;8.962;2022-09-09T13:15:48;98139.41;;;22.33;100.00
2184;BME280;1098;48.940;8.962;2022-09-09T13:18:17;98133.16;;;22.63;100.00
2184;BME280;1098;48.940;8.962;2022-09-09T13:20:48;98138.63;;;22.19;100.00
2184;BME280;1098;48.940;8.962;2022-09-09T13:23:17;98137.03;;;22.85;100.00
2184;BME280;1098;48.940;8.962;2022-09-09T13:25:54;98133.78;;;22.83;100.00
2184;BME280;1098;48.940;8.962;2022-09-09T13:28:24;98126.44;;;22.34;100.00
2184;BME280;1098;48.940;8.962;2022-09-09T13:31:02;98115.53;;;22.95;100.00
2184;BME280;1098;48.940;8.962;2022-09-09T13:33:34;98118.59;;;23.34;100.00
2184;BME280;1098;48.940;8.962;2022-09-09T13:36:29;98121.91;;;23.05;100.00
2184;BME280;1098;48.940;8.962;2022-09-09T13:38:59;98118.28;;;22.73;100.00
2184;BME280;1098;48.940;8.962;2022-09-09T13:41:31;98108.38;;;22.94;100.00
2184;BME280;1098;48.940;8.962;2022-09-09T13:44:00;98108.88;;;22.96;100.00
2184;BME280;1098;48.940;8.962;2022-09-09T13:46:34;98104.72;;;23.08;100.00